createdAt,value
2022-08-28T00:01:51.768Z,16.10
2022-08-28T00:04:21.840Z,19.10
2022-08-28T00:06:51.475Z,22.92
2022-08-28T00:09:21.197Z,15.93
2022-08-28T00:11:51.547Z,16.55
2022-08-28T00:14:22.601Z,17.65
2022-08-28T00:16:52.272Z,15.05
2022-08-28T00:19:22.137Z,16.35
2022-08-28T00:21:51.640Z,17.58
2022-08-28T00:24:21.305Z,27.38
2022-08-28T00:27:08.986Z,19.15
2022-08-28T00:29:39.502Z,20.92
2022-08-28T00:32:10.221Z,19.10
2022-08-28T00:34:40.648Z,27.10
2022-08-28T00:37:10.222Z,26.27
2022-08-28T00:39:39.797Z,24.80
2022-08-28T00:42:10.555Z,23.48
2022-08-28T00:44:40.130Z,21.13
2022-08-28T00:47:09.898Z,22.63
2022-08-28T00:49:40.112Z,21.02
2022-08-28T00:52:11.798Z,20.00
2022-08-28T00:55:01.888Z,21.23
2022-08-28T00:57:36.659Z,18.67
2022-08-28T01:00:08.214Z,17.13
2022-08-28T01:02:37.927Z,19.40
2022-08-28T01:05:11.319Z,16.67
2022-08-28T01:07:40.812Z,15.85
2022-08-28T01:10:11.006Z,14.35
2022-08-28T01:12:40.547Z,13.15
2022-08-28T01:15:14.123Z,12.90
2022-08-28T01:17:44.716Z,13.38
2022-08-28T01:20:16.020Z,13.23
2022-08-28T01:23:03.117Z,13.95
2022-08-28T01:25:35.177Z,14.48
2022-08-28T01:28:07.461Z,12.65
2022-08-28T01:30:37.331Z,16.70
2022-08-28T01:33:06.833Z,15.95
2022-08-28T01:35:37.339Z,11.32
2022-08-28T01:38:07.002Z,12.32
2022-08-28T01:40:38.009Z,11.88
2022-08-28T01:43:17.393Z,16.15
2022-08-28T01:45:47.766Z,15.65
2022-08-28T01:48:17.648Z,13.57
2022-08-28T01:50:47.172Z,19.15
2022-08-28T01:53:17.381Z,17.70
2022-08-28T01:55:47.010Z,14.48
2022-08-28T01:58:17.642Z,9.38
2022-08-28T02:00:47.432Z,7.22
2022-08-28T02:03:17.175Z,8.38
2022-08-28T02:05:47.382Z,8.13
2022-08-28T02:08:17.011Z,8.65
2022-08-28T02:10:46.783Z,9.95
2022-08-28T02:13:17.678Z,9.10
2022-08-28T02:15:48.519Z,6.68
2022-08-28T02:18:18.586Z,8.35
2022-08-28T02:20:48.462Z,6.45
2022-08-28T02:23:18.553Z,8.00
2022-08-28T02:25:48.182Z,8.68
2022-08-28T02:28:20.448Z,4.40
2022-08-28T02:30:49.989Z,6.88
2022-08-28T02:33:19.753Z,11.65
2022-08-28T02:35:49.226Z,7.57
2022-08-28T02:38:18.965Z,7.65
2022-08-28T02:40:48.807Z,10.55
2022-08-28T02:43:18.793Z,14.88
2022-08-28T02:45:48.457Z,7.88
2022-08-28T02:48:19.405Z,5.53
2022-08-28T02:50:49.073Z,7.38
2022-08-28T02:53:19.455Z,7.30
2022-08-28T02:55:49.127Z,10.23
2022-08-28T02:58:19.088Z,10.07
2022-08-28T03:00:48.833Z,7.60
2022-08-28T03:03:18.743Z,8.55
2022-08-28T03:05:48.310Z,4.68
2022-08-28T03:08:18.137Z,4.57
2022-08-28T03:10:47.919Z,8.73
2022-08-28T03:13:26.861Z,4.47
2022-08-28T03:15:57.024Z,4.97
2022-08-28T03:18:27.066Z,6.63
2022-08-28T03:20:59.975Z,4.28
2022-08-28T03:23:29.651Z,4.40
2022-08-28T03:26:01.989Z,3.85
2022-08-28T03:28:32.729Z,3.22
2022-08-28T03:31:03.459Z,2.58
2022-08-28T03:33:33.063Z,4.15
2022-08-28T03:36:04.824Z,7.93
2022-08-28T03:38:35.467Z,4.50
2022-08-28T03:41:04.975Z,4.85
2022-08-28T03:43:35.425Z,7.47
2022-08-28T03:46:06.265Z,7.75
2022-08-28T03:48:37.629Z,5.30
2022-08-28T03:51:16.089Z,3.88
2022-08-28T03:53:48.367Z,3.00
2022-08-28T03:56:19.228Z,4.18
2022-08-28T03:58:49.088Z,4.03
2022-08-28T04:01:18.719Z,6.05
2022-08-28T04:03:48.528Z,4.70
2022-08-28T04:06:18.182Z,4.63
2022-08-28T04:08:48.058Z,2.20
2022-08-28T04:11:18.294Z,4.50
2022-08-28T04:13:48.176Z,3.55
2022-08-28T04:16:21.049Z,2.97
2022-08-28T04:18:51.237Z,2.80
2022-08-28T04:21:22.759Z,6.25
2022-08-28T04:23:52.411Z,4.85
2022-08-28T04:26:23.413Z,5.80
2022-08-28T04:28:55.981Z,4.03
2022-08-28T04:31:31.192Z,5.22
2022-08-28T04:34:02.110Z,5.68
2022-08-28T04:36:31.896Z,6.20
2022-08-28T04:39:01.652Z,5.93
2022-08-28T04:41:31.699Z,4.50
2022-08-28T04:44:01.230Z,4.53
2022-08-28T04:46:31.169Z,2.30
2022-08-28T04:49:01.185Z,6.07
2022-08-28T04:51:30.935Z,4.25
2022-08-28T04:54:00.675Z,6.55
2022-08-28T04:56:30.260Z,6.20
2022-08-28T04:58:59.873Z,5.05
2022-08-28T05:01:29.739Z,9.82
2022-08-28T05:04:00.328Z,5.88
2022-08-28T05:06:30.054Z,3.67
2022-08-28T05:09:00.143Z,5.13
2022-08-28T05:11:34.555Z,5.15
2022-08-28T05:14:05.849Z,8.18
2022-08-28T05:16:36.171Z,5.53
2022-08-28T05:19:06.040Z,4.47
2022-08-28T05:21:36.441Z,4.10
2022-08-28T05:24:06.430Z,5.35
2022-08-28T05:26:36.205Z,3.97
2022-08-28T05:29:10.072Z,5.97
2022-08-28T05:31:40.598Z,4.03
2022-08-28T05:34:11.872Z,2.95
2022-08-28T05:36:41.346Z,7.43
2022-08-28T05:39:11.608Z,5.35
2022-08-28T05:41:42.322Z,4.05
2022-08-28T05:44:12.383Z,4.88
2022-08-28T05:46:45.533Z,4.80
2022-08-28T05:49:17.080Z,6.45
2022-08-28T05:51:46.851Z,4.25
2022-08-28T05:54:16.954Z,9.70
2022-08-28T05:56:46.916Z,5.13
2022-08-28T05:59:17.415Z,5.68
2022-08-28T06:01:48.263Z,5.15
2022-08-28T06:04:19.344Z,5.50
2022-08-28T06:06:49.460Z,4.22
2022-08-28T06:09:28.976Z,4.43
2022-08-28T06:12:00.170Z,23.30
2022-08-28T06:14:30.989Z,5.22
2022-08-28T06:17:01.001Z,3.88
2022-08-28T06:19:31.055Z,4.13
2022-08-28T06:22:07.378Z,5.10
2022-08-28T06:24:37.143Z,6.93
2022-08-28T06:27:10.080Z,6.18
2022-08-28T06:29:41.383Z,4.43
2022-08-28T06:32:11.366Z,4.97
2022-08-28T06:34:41.083Z,4.53
2022-08-28T06:37:12.128Z,6.22
2022-08-28T06:39:42.109Z,6.82
2022-08-28T06:42:11.901Z,5.65
2022-08-28T06:44:41.529Z,6.75
2022-08-28T06:47:12.494Z,5.13
2022-08-28T06:49:42.476Z,5.75
2022-08-28T06:52:12.142Z,8.48
2022-08-28T06:54:55.331Z,6.15
2022-08-28T06:57:27.398Z,5.43
2022-08-28T07:00:00.529Z,7.28
2022-08-28T07:02:30.788Z,6.15
2022-08-28T07:05:00.432Z,6.75
2022-08-28T07:07:31.452Z,7.82
2022-08-28T07:10:06.135Z,8.30
2022-08-28T07:12:36.957Z,7.63
2022-08-28T07:15:11.389Z,9.25
2022-08-28T07:17:41.269Z,15.60
2022-08-28T07:20:12.879Z,11.18
2022-08-28T07:22:43.939Z,12.23
2022-08-28T07:25:14.038Z,10.48
2022-08-28T07:27:44.054Z,9.90
2022-08-28T07:30:14.546Z,8.70
2022-08-28T07:32:47.965Z,10.20
2022-08-28T07:35:18.497Z,8.43
2022-08-28T07:37:48.594Z,10.93
2022-08-28T07:40:21.726Z,10.10
2022-08-28T07:43:09.509Z,9.73
2022-08-28T07:45:39.240Z,12.50
2022-08-28T07:48:11.544Z,15.80
2022-08-28T07:50:41.843Z,17.05
2022-08-28T07:53:12.772Z,14.73
2022-08-28T07:55:42.643Z,12.80
2022-08-28T07:58:12.780Z,17.63
2022-08-28T08:00:42.885Z,14.70
2022-08-28T08:03:16.110Z,22.55
2022-08-28T08:05:53.899Z,17.00
2022-08-28T08:08:23.907Z,20.90
2022-08-28T08:11:04.074Z,21.45
2022-08-28T08:13:35.283Z,22.35
2022-08-28T08:16:15.722Z,15.85
2022-08-28T08:18:45.634Z,21.80
2022-08-28T08:21:17.075Z,25.23
2022-08-28T08:23:46.989Z,20.25
2022-08-28T08:26:20.726Z,24.45
2022-08-28T08:28:50.880Z,19.30
2022-08-28T08:31:23.145Z,21.98
2022-08-28T08:33:53.554Z,21.92
2022-08-28T08:36:24.602Z,21.27
2022-08-28T08:38:55.447Z,24.10
2022-08-28T08:41:42.087Z,26.33
2022-08-28T08:44:13.421Z,27.90
2022-08-28T08:46:50.147Z,26.92
2022-08-28T08:49:22.574Z,26.50
2022-08-28T08:52:18.413Z,28.02
2022-08-28T08:54:52.599Z,23.42
2022-08-28T08:57:24.474Z,28.27
2022-08-28T08:59:54.135Z,30.17
2022-08-28T09:02:31.168Z,33.80
2022-08-28T09:05:01.207Z,34.63
2022-08-28T09:07:54.026Z,33.03
2022-08-28T09:10:23.926Z,34.10
2022-08-28T09:12:54.265Z,31.55
2022-08-28T09:15:33.671Z,36.58
2022-08-28T09:18:14.054Z,29.98
2022-08-28T09:20:44.580Z,29.95
2022-08-28T09:23:15.138Z,30.58
2022-08-28T09:25:50.828Z,29.60
2022-08-28T09:28:22.601Z,21.50
2022-08-28T09:31:00.339Z,28.17
2022-08-28T09:33:34.406Z,29.55
2022-08-28T09:36:24.268Z,25.05
2022-08-28T09:39:17.613Z,27.10
2022-08-28T09:42:11.924Z,27.27
2022-08-28T09:44:54.858Z,29.17
2022-08-28T09:47:36.685Z,31.25
2022-08-28T09:50:34.705Z,28.45
2022-08-28T09:53:13.532Z,33.10
2022-08-28T09:55:53.994Z,26.55
2022-08-28T09:58:23.798Z,29.08
2022-08-28T10:01:13.206Z,32.42
2022-08-28T10:03:49.186Z,28.70
2022-08-28T10:06:24.551Z,29.77
2022-08-28T10:08:54.900Z,32.35
2022-08-28T10:11:27.538Z,32.38
2022-08-28T10:14:01.506Z,41.85
2022-08-28T10:16:34.969Z,39.35
2022-08-28T10:19:06.151Z,41.10
2022-08-28T10:21:41.475Z,42.38
2022-08-28T10:24:28.101Z,43.67
2022-08-28T10:27:05.962Z,42.38
2022-08-28T10:29:39.746Z,48.45
2022-08-28T10:32:09.302Z,54.08
2022-08-28T10:34:48.219Z,50.00
2022-08-28T10:37:36.291Z,46.20
2022-08-28T10:40:13.072Z,48.80
2022-08-28T10:42:44.680Z,57.47
2022-08-28T10:45:18.586Z,51.03
2022-08-28T10:48:04.657Z,48.85
2022-08-28T10:51:00.726Z,53.67
2022-08-28T10:53:34.654Z,49.60
2022-08-28T10:56:05.964Z,39.67
2022-08-28T10:58:35.642Z,48.67
2022-08-28T11:01:07.203Z,51.88
2022-08-28T11:03:42.066Z,47.10
2022-08-28T11:06:30.266Z,53.70
2022-08-28T11:09:00.414Z,37.03
2022-08-28T11:12:02.023Z,30.50
2022-08-28T11:14:48.017Z,31.60
2022-08-28T11:17:29.212Z,35.20
2022-08-28T11:20:34.455Z,29.17
2022-08-28T11:23:17.153Z,24.40
2022-08-28T11:25:47.953Z,33.95
2022-08-28T11:28:23.550Z,21.88
2022-08-28T11:30:53.478Z,23.05
2022-08-28T11:33:41.890Z,26.38
2022-08-28T11:36:15.635Z,29.98
2022-08-28T11:38:45.265Z,22.48
2022-08-28T11:41:24.180Z,24.73
2022-08-28T11:43:54.525Z,55.15
2022-08-28T11:46:34.220Z,19.63
2022-08-28T11:49:04.621Z,18.48
2022-08-28T11:51:40.791Z,16.08
2022-08-28T11:54:28.809Z,14.98
2022-08-28T11:57:13.810Z,13.50
2022-08-28T12:00:06.501Z,14.82
2022-08-28T12:02:42.192Z,17.75
2022-08-28T12:05:14.967Z,12.85
2022-08-28T12:07:46.352Z,14.77
2022-08-28T12:10:27.580Z,11.68
2022-08-28T12:12:57.818Z,12.65
2022-08-28T12:15:31.150Z,15.60
2022-08-28T12:18:02.515Z,15.77
2022-08-28T12:21:02.318Z,15.73
2022-08-28T12:23:33.804Z,17.90
2022-08-28T12:26:04.142Z,10.07
2022-08-28T12:28:37.069Z,14.82
2022-08-28T12:31:11.427Z,10.60
2022-08-28T12:33:58.651Z,14.38
2022-08-28T12:36:30.449Z,16.83
2022-08-28T12:39:00.514Z,13.68
2022-08-28T12:41:30.397Z,10.25
2022-08-28T12:44:00.512Z,14.80
2022-08-28T12:46:31.787Z,13.20
2022-08-28T12:49:02.860Z,17.98
2022-08-28T12:51:34.018Z,11.18
2022-08-28T12:54:05.193Z,10.93
2022-08-28T12:56:36.062Z,13.60
2022-08-28T12:59:27.410Z,13.18
2022-08-28T13:01:57.897Z,17.20
2022-08-28T13:04:27.814Z,12.27
2022-08-28T13:07:00.886Z,12.63
2022-08-28T13:09:31.428Z,13.18
2022-08-28T13:12:02.135Z,15.30
2022-08-28T13:14:43.909Z,20.27
2022-08-28T13:17:13.830Z,37.88
2022-08-28T13:19:44.216Z,14.27
2022-08-28T13:22:32.976Z,13.88
2022-08-28T13:25:04.610Z,19.85
2022-08-28T13:27:34.356Z,15.73
2022-08-28T13:30:06.876Z,16.50
2022-08-28T13:32:39.308Z,23.10
2022-08-28T13:35:22.300Z,20.00
2022-08-28T13:37:52.982Z,15.63
2022-08-28T13:40:56.956Z,12.18
2022-08-28T13:43:13.658Z,16.52
2022-08-28T13:45:44.589Z,18.02
2022-08-28T13:48:21.753Z,19.02
2022-08-28T13:50:53.057Z,16.17
2022-08-28T13:53:24.279Z,15.35
2022-08-28T13:55:54.108Z,14.60
2022-08-28T13:58:24.800Z,19.35
2022-08-28T14:00:54.698Z,16.73
2022-08-28T14:03:40.280Z,13.93
2022-08-28T14:06:12.800Z,14.52
2022-08-28T14:08:46.362Z,13.98
2022-08-28T14:11:16.745Z,15.77
2022-08-28T14:13:55.413Z,16.15
2022-08-28T14:16:28.930Z,15.55
2022-08-28T14:18:59.842Z,16.95
2022-08-28T14:21:33.437Z,23.67
2022-08-28T14:24:14.471Z,17.50
2022-08-28T14:26:44.599Z,17.38
2022-08-28T14:29:15.438Z,16.55
2022-08-28T14:32:42.833Z,14.85
2022-08-28T14:34:49.143Z,18.58
2022-08-28T14:37:22.847Z,14.68
2022-08-28T14:39:56.078Z,19.88
2022-08-28T14:42:28.308Z,14.70
2022-08-28T14:44:58.327Z,25.77
2022-08-28T14:47:28.135Z,18.13
2022-08-28T14:49:58.268Z,18.30
2022-08-28T14:52:28.413Z,18.40
2022-08-28T14:54:59.005Z,21.65
2022-08-28T14:57:28.861Z,21.63
2022-08-28T14:59:58.764Z,24.92
2022-08-28T15:02:28.648Z,22.92
2022-08-28T15:04:58.607Z,22.52
2022-08-28T15:07:28.347Z,25.05
2022-08-28T15:09:58.436Z,23.42
2022-08-28T15:12:28.452Z,21.27
2022-08-28T15:14:58.617Z,21.05
2022-08-28T15:17:33.547Z,23.05
2022-08-28T15:20:04.872Z,20.10
2022-08-28T15:22:35.056Z,23.63
2022-08-28T15:25:04.870Z,19.70
2022-08-28T15:27:34.914Z,24.52
2022-08-28T15:30:04.956Z,25.25
2022-08-28T15:32:34.568Z,25.67
2022-08-28T15:35:04.336Z,22.83
2022-08-28T15:37:35.050Z,19.65
2022-08-28T15:40:22.886Z,19.42
2022-08-28T15:42:53.884Z,19.65
2022-08-28T15:45:24.016Z,14.93
2022-08-28T15:47:53.629Z,15.77
2022-08-28T15:50:23.485Z,18.55
2022-08-28T15:52:55.743Z,19.08
2022-08-28T15:55:28.718Z,20.40
2022-08-28T15:57:58.637Z,15.57
2022-08-28T16:00:28.206Z,15.52
2022-08-28T16:03:02.350Z,15.75
2022-08-28T16:05:34.984Z,19.15
2022-08-28T16:08:09.166Z,21.25
2022-08-28T16:10:39.088Z,16.30
2022-08-28T16:13:08.772Z,23.45
2022-08-28T16:15:38.335Z,15.80
2022-08-28T16:18:10.572Z,13.98
2022-08-28T16:20:40.161Z,12.23
2022-08-28T16:23:10.191Z,14.25
2022-08-28T16:25:40.123Z,17.52
2022-08-28T16:28:10.071Z,17.48
2022-08-28T16:30:43.953Z,19.02
2022-08-28T16:33:14.063Z,21.83
2022-08-28T16:35:51.605Z,22.17
2022-08-28T16:38:25.667Z,16.35
2022-08-28T16:40:55.248Z,21.60
2022-08-28T16:43:24.879Z,23.60
2022-08-28T16:45:54.459Z,23.60
2022-08-28T16:48:24.143Z,25.98
2022-08-28T16:50:53.757Z,26.00
2022-08-28T16:53:27.068Z,24.27
2022-08-28T16:55:56.853Z,26.67
2022-08-28T16:58:26.827Z,20.83
2022-08-28T17:00:56.392Z,23.10
2022-08-28T17:03:26.778Z,20.73
2022-08-28T17:05:58.014Z,18.83
2022-08-28T17:08:27.718Z,18.73
2022-08-28T17:10:57.314Z,15.77
2022-08-28T17:13:27.174Z,18.35
2022-08-28T17:15:58.381Z,17.02
2022-08-28T17:18:28.104Z,17.42
2022-08-28T17:21:16.288Z,18.25
2022-08-28T17:23:48.923Z,23.17
2022-08-28T17:26:23.341Z,15.25
2022-08-28T17:28:53.541Z,16.88
2022-08-28T17:31:23.398Z,16.40
2022-08-28T17:33:53.109Z,17.45
2022-08-28T17:36:32.650Z,18.20
2022-08-28T17:39:04.625Z,20.33
2022-08-28T17:41:35.390Z,18.10
2022-08-28T17:44:06.362Z,19.75
2022-08-28T17:46:38.052Z,16.52
2022-08-28T17:49:08.799Z,17.13
2022-08-28T17:51:43.716Z,17.08
2022-08-28T17:54:14.708Z,19.95
2022-08-28T17:56:44.571Z,19.73
2022-08-28T17:59:14.839Z,22.73
2022-08-28T18:01:46.152Z,26.88
2022-08-28T18:04:19.062Z,26.80
2022-08-28T18:06:55.554Z,22.08
2022-08-28T18:09:26.666Z,20.25
2022-08-28T18:11:56.475Z,18.10
2022-08-28T18:14:26.255Z,23.33
2022-08-28T18:16:55.963Z,21.33
2022-08-28T18:19:25.555Z,22.00
2022-08-28T18:21:56.634Z,27.73
2022-08-28T18:24:26.187Z,21.30
2022-08-28T18:26:57.144Z,24.50
2022-08-28T18:29:26.863Z,24.10
2022-08-28T18:31:56.514Z,29.08
2022-08-28T18:34:26.084Z,28.73
2022-08-28T18:36:57.089Z,36.00
2022-08-28T18:39:29.375Z,24.70
2022-08-28T18:42:00.018Z,29.45
2022-08-28T18:44:29.615Z,29.60
2022-08-28T18:46:59.285Z,25.55
2022-08-28T18:49:29.018Z,24.25
2022-08-28T18:51:58.784Z,24.15
2022-08-28T18:54:29.747Z,27.50
2022-08-28T18:57:04.029Z,31.10
2022-08-28T18:59:34.900Z,24.45
2022-08-28T19:02:06.014Z,37.17
2022-08-28T19:04:36.189Z,38.08
2022-08-28T19:07:06.028Z,57.88
2022-08-28T19:09:36.672Z,40.65
2022-08-28T19:12:06.407Z,36.08
2022-08-28T19:14:35.917Z,36.20
2022-08-28T19:17:06.568Z,41.50
2022-08-28T19:19:36.143Z,38.05
2022-08-28T19:22:06.901Z,39.90
2022-08-28T19:24:36.587Z,37.13
2022-08-28T19:27:06.288Z,40.20
2022-08-28T19:29:36.166Z,39.42
2022-08-28T19:32:06.012Z,34.40
2022-08-28T19:34:36.366Z,39.72
2022-08-28T19:37:07.141Z,39.72
2022-08-28T19:39:36.990Z,32.70
2022-08-28T19:42:06.585Z,35.00
2022-08-28T19:44:36.253Z,29.42
2022-08-28T19:47:05.965Z,31.52
2022-08-28T19:49:35.513Z,24.00
2022-08-28T19:52:05.404Z,27.45
2022-08-28T19:54:36.953Z,15.05
2022-08-28T19:57:08.214Z,13.15
2022-08-28T19:59:38.048Z,23.70
2022-08-28T20:02:08.219Z,16.73
2022-08-28T20:04:38.160Z,20.85
2022-08-28T20:07:07.944Z,16.98
2022-08-28T20:09:38.645Z,14.57
2022-08-28T20:12:08.390Z,12.25
2022-08-28T20:14:40.358Z,13.77
2022-08-28T20:17:09.869Z,21.05
2022-08-28T20:19:39.933Z,17.85
2022-08-28T20:22:10.568Z,12.70
2022-08-28T20:24:43.007Z,10.60
2022-08-28T20:27:12.652Z,17.42
2022-08-28T20:29:42.230Z,20.38
2022-08-28T20:32:12.923Z,19.10
2022-08-28T20:34:44.514Z,22.10
2022-08-28T20:37:14.495Z,13.65
2022-08-28T20:39:44.375Z,24.77
2022-08-28T20:42:14.962Z,15.35
2022-08-28T20:44:44.580Z,12.85
2022-08-28T20:47:14.139Z,13.38
2022-08-28T20:49:43.697Z,12.38
2022-08-28T20:52:13.503Z,16.42
2022-08-28T20:54:47.751Z,13.60
2022-08-28T20:57:20.203Z,10.77
2022-08-28T20:59:49.867Z,20.10
2022-08-28T21:02:22.758Z,20.38
2022-08-28T21:04:52.297Z,13.68
2022-08-28T21:07:22.602Z,20.80
2022-08-28T21:10:06.005Z,15.30
2022-08-28T21:12:41.636Z,15.13
2022-08-28T21:15:12.209Z,19.75
2022-08-28T21:17:42.239Z,19.10
2022-08-28T21:20:13.245Z,16.63
2022-08-28T21:22:43.957Z,12.80
2022-08-28T21:25:13.663Z,15.32
2022-08-28T21:27:44.391Z,15.90
2022-08-28T21:30:15.617Z,14.65
2022-08-28T21:32:46.352Z,12.32
2022-08-28T21:35:19.685Z,15.50
2022-08-28T21:37:50.222Z,19.80
2022-08-28T21:40:21.039Z,20.77
2022-08-28T21:42:51.041Z,11.68
2022-08-28T21:45:22.252Z,13.60
2022-08-28T21:47:51.907Z,19.50
2022-08-28T21:50:22.309Z,20.70
2022-08-28T21:52:51.949Z,17.15
2022-08-28T21:55:21.831Z,23.58
2022-08-28T21:57:51.478Z,20.02
2022-08-28T22:00:21.902Z,19.15
2022-08-28T22:02:51.501Z,18.45
2022-08-28T22:05:21.861Z,21.42
2022-08-28T22:07:52.613Z,18.83
2022-08-28T22:10:22.234Z,16.30
2022-08-28T22:12:52.687Z,16.33
2022-08-28T22:15:23.064Z,18.55
2022-08-28T22:17:53.380Z,20.55
2022-08-28T22:20:23.059Z,17.95
2022-08-28T22:23:11.021Z,23.48
2022-08-28T22:25:41.230Z,19.27
2022-08-28T22:28:11.876Z,21.23
2022-08-28T22:30:41.783Z,28.42
2022-08-28T22:33:12.135Z,18.48
2022-08-28T22:35:41.753Z,20.15
2022-08-28T22:38:12.911Z,19.05
2022-08-28T22:40:42.882Z,19.20
2022-08-28T22:43:12.705Z,16.40
2022-08-28T22:45:42.402Z,18.25
2022-08-28T22:48:16.007Z,18.83
2022-08-28T22:50:49.868Z,17.20
2022-08-28T22:53:19.639Z,14.95
2022-08-28T22:55:49.573Z,16.50
2022-08-28T22:58:20.300Z,18.55
2022-08-28T23:00:49.961Z,18.58
2022-08-28T23:03:19.954Z,16.23
2022-08-28T23:05:49.932Z,15.93
2022-08-28T23:08:19.963Z,17.67
2022-08-28T23:10:59.126Z,15.15
2022-08-28T23:13:29.543Z,17.60
2022-08-28T23:16:00.330Z,11.85
2022-08-28T23:18:35.145Z,17.38
2022-08-28T23:21:11.727Z,13.05
2022-08-28T23:23:41.306Z,16.70
2022-08-28T23:26:13.987Z,18.60
2022-08-28T23:28:43.976Z,16.23
2022-08-28T23:31:13.689Z,14.00
2022-08-28T23:33:43.432Z,13.95
2022-08-28T23:36:13.200Z,14.43
2022-08-28T23:38:43.309Z,13.82
2022-08-28T23:41:13.473Z,12.93
2022-08-28T23:43:43.091Z,12.00
2022-08-28T23:47:33.377Z,12.15
2022-08-28T23:49:54.604Z,11.73
2022-08-28T23:52:26.205Z,12.63
2022-08-28T23:54:56.043Z,12.13
2022-08-28T23:57:26.358Z,13.27
2022-08-28T23:59:56.152Z,11.65
